sensor_id;sensor_type;location;lat;lon;timestamp;P1;durP1;ratioP1;P2;durP2;ratioP2
11675;SDS011;5894;42.768;23.404;2022-11-21T00:00:25;5.80;;;4.80;;
11675;SDS011;5894;42.768;23.404;2022-11-21T00:02:52;9.05;;;5.03;;
11675;SDS011;5894;42.768;23.404;2022-11-21T00:05:19;7.50;;;4.50;;
11675;SDS011;5894;42.768;23.404;2022-11-21T00:07:45;7.07;;;5.30;;
11675;SDS011;5894;42.768;23.404;2022-11-21T00:10:14;7.93;;;5.60;;
11675;SDS011;5894;42.768;23.404;2022-11-21T00:12:41;10.02;;;6.68;;
11675;SDS011;5894;42.768;23.404;2022-11-21T00:15:08;9.45;;;6.10;;
11675;SDS011;5894;42.768;23.404;2022-11-21T00:17:37;7.05;;;5.63;;
11675;SDS011;5894;42.768;23.404;2022-11-21T00:20:04;8.05;;;5.63;;
11675;SDS011;5894;42.768;23.404;2022-11-21T00:22:31;6.93;;;3.10;;
11675;SDS011;5894;42.768;23.404;2022-11-21T00:24:58;6.25;;;2.83;;
11675;SDS011;5894;42.768;23.404;2022-11-21T00:27:25;5.28;;;1.70;;
11675;SDS011;5894;42.768;23.404;2022-11-21T00:29:52;2.60;;;1.75;;
11675;SDS011;5894;42.768;23.404;2022-11-21T00:32:18;3.47;;;1.50;;
11675;SDS011;5894;42.768;23.404;2022-11-21T00:34:46;4.03;;;1.80;;
11675;SDS011;5894;42.768;23.404;2022-11-21T00:37:13;3.20;;;1.60;;
11675;SDS011;5894;42.768;23.404;2022-11-21T00:39:40;2.63;;;1.50;;
11675;SDS011;5894;42.768;23.404;2022-11-21T00:42:07;3.30;;;1.90;;
11675;SDS011;5894;42.768;23.404;2022-11-21T00:44:34;2.53;;;1.95;;
11675;SDS011;5894;42.768;23.404;2022-11-21T00:47:00;4.32;;;2.10;;
11675;SDS011;5894;42.768;23.404;2022-11-21T00:49:27;4.72;;;2.90;;
11675;SDS011;5894;42.768;23.404;2022-11-21T00:51:55;6.97;;;2.25;;
11675;SDS011;5894;42.768;23.404;2022-11-21T00:54:22;6.53;;;4.88;;
11675;SDS011;5894;42.768;23.404;2022-11-21T00:56:49;8.07;;;5.78;;
11675;SDS011;5894;42.768;23.404;2022-11-21T00:59:15;8.60;;;5.97;;
11675;SDS011;5894;42.768;23.404;2022-11-21T01:01:42;7.00;;;6.30;;
11675;SDS011;5894;42.768;23.404;2022-11-21T01:04:09;8.48;;;5.78;;
11675;SDS011;5894;42.768;23.404;2022-11-21T01:06:36;8.68;;;6.18;;
11675;SDS011;5894;42.768;23.404;2022-11-21T01:09:04;6.95;;;5.40;;
11675;SDS011;5894;42.768;23.404;2022-11-21T01:11:31;9.68;;;6.00;;
11675;SDS011;5894;42.768;23.404;2022-11-21T01:13:58;7.53;;;5.90;;
11675;SDS011;5894;42.768;23.404;2022-11-21T01:16:26;7.13;;;5.65;;
11675;SDS011;5894;42.768;23.404;2022-11-21T01:18:54;7.15;;;5.35;;
11675;SDS011;5894;42.768;23.404;2022-11-21T01:21:22;9.25;;;5.78;;
11675;SDS011;5894;42.768;23.404;2022-11-21T01:23:50;7.70;;;5.68;;
11675;SDS011;5894;42.768;23.404;2022-11-21T01:26:19;9.98;;;5.20;;
11675;SDS011;5894;42.768;23.404;2022-11-21T01:28:48;5.68;;;4.68;;
11675;SDS011;5894;42.768;23.404;2022-11-21T01:31:16;5.70;;;3.80;;
11675;SDS011;5894;42.768;23.404;2022-11-21T01:33:44;5.57;;;2.95;;
11675;SDS011;5894;42.768;23.404;2022-11-21T01:36:12;6.10;;;3.67;;
11675;SDS011;5894;42.768;23.404;2022-11-21T01:38:41;3.50;;;1.40;;
11675;SDS011;5894;42.768;23.404;2022-11-21T01:41:09;1.73;;;1.10;;
11675;SDS011;5894;42.768;23.404;2022-11-21T01:43:38;2.65;;;1.27;;
11675;SDS011;5894;42.768;23.404;2022-11-21T01:46:09;4.15;;;1.15;;
11675;SDS011;5894;42.768;23.404;2022-11-21T01:48:38;3.70;;;1.48;;
11675;SDS011;5894;42.768;23.404;2022-11-21T01:51:10;4.50;;;2.10;;
11675;SDS011;5894;42.768;23.404;2022-11-21T01:53:41;3.67;;;2.60;;
11675;SDS011;5894;42.768;23.404;2022-11-21T01:56:11;9.85;;;3.30;;
11675;SDS011;5894;42.768;23.404;2022-11-21T01:58:39;5.57;;;2.00;;
11675;SDS011;5894;42.768;23.404;2022-11-21T02:01:08;3.40;;;2.20;;
11675;SDS011;5894;42.768;23.404;2022-11-21T02:03:37;4.68;;;1.50;;
11675;SDS011;5894;42.768;23.404;2022-11-21T02:06:05;2.80;;;0.90;;
11675;SDS011;5894;42.768;23.404;2022-11-21T02:08:34;2.30;;;0.70;;
11675;SDS011;5894;42.768;23.404;2022-11-21T02:11:05;2.85;;;0.85;;
11675;SDS011;5894;42.768;23.404;2022-11-21T02:13:37;2.13;;;0.85;;
11675;SDS011;5894;42.768;23.404;2022-11-21T02:16:05;1.05;;;0.70;;
11675;SDS011;5894;42.768;23.404;2022-11-21T02:18:33;1.40;;;0.77;;
11675;SDS011;5894;42.768;23.404;2022-11-21T02:21:02;1.42;;;0.70;;
11675;SDS011;5894;42.768;23.404;2022-11-21T02:23:39;2.08;;;0.63;;
11675;SDS011;5894;42.768;23.404;2022-11-21T02:26:11;2.08;;;1.05;;
11675;SDS011;5894;42.768;23.404;2022-11-21T02:28:38;3.55;;;1.10;;
11675;SDS011;5894;42.768;23.404;2022-11-21T02:31:06;1.58;;;1.15;;
11675;SDS011;5894;42.768;23.404;2022-11-21T02:33:33;3.65;;;1.77;;
11675;SDS011;5894;42.768;23.404;2022-11-21T02:36:00;2.13;;;1.40;;
11675;SDS011;5894;42.768;23.404;2022-11-21T02:38:29;2.67;;;1.40;;
11675;SDS011;5894;42.768;23.404;2022-11-21T02:40:59;1.67;;;1.40;;
11675;SDS011;5894;42.768;23.404;2022-11-21T02:43:35;2.65;;;1.50;;
11675;SDS011;5894;42.768;23.404;2022-11-21T02:46:05;3.08;;;1.10;;
11675;SDS011;5894;42.768;23.404;2022-11-21T02:48:32;2.95;;;1.10;;
11675;SDS011;5894;42.768;23.404;2022-11-21T02:50:59;1.42;;;1.20;;
11675;SDS011;5894;42.768;23.404;2022-11-21T02:53:26;1.63;;;1.20;;
11675;SDS011;5894;42.768;23.404;2022-11-21T02:55:53;1.80;;;1.20;;
11675;SDS011;5894;42.768;23.404;2022-11-21T02:58:19;2.67;;;1.00;;
11675;SDS011;5894;42.768;23.404;2022-11-21T03:00:47;2.35;;;1.10;;
11675;SDS011;5894;42.768;23.404;2022-11-21T03:03:14;6.10;;;2.00;;
11675;SDS011;5894;42.768;23.404;2022-11-21T03:05:41;10.23;;;3.70;;
11675;SDS011;5894;42.768;23.404;2022-11-21T03:08:08;11.70;;;3.90;;
11675;SDS011;5894;42.768;23.404;2022-11-21T03:10:35;8.93;;;4.05;;
11675;SDS011;5894;42.768;23.404;2022-11-21T03:13:02;7.53;;;3.20;;
11675;SDS011;5894;42.768;23.404;2022-11-21T03:15:31;6.30;;;4.57;;
11675;SDS011;5894;42.768;23.404;2022-11-21T03:18:00;4.65;;;3.80;;
11675;SDS011;5894;42.768;23.404;2022-11-21T03:20:28;3.58;;;2.65;;
11675;SDS011;5894;42.768;23.404;2022-11-21T03:22:55;3.13;;;1.90;;
11675;SDS011;5894;42.768;23.404;2022-11-21T03:25:22;2.17;;;1.50;;
11675;SDS011;5894;42.768;23.404;2022-11-21T03:27:49;1.67;;;1.50;;
11675;SDS011;5894;42.768;23.404;2022-11-21T03:30:17;2.38;;;1.10;;
11675;SDS011;5894;42.768;23.404;2022-11-21T03:32:45;1.77;;;1.50;;
11675;SDS011;5894;42.768;23.404;2022-11-21T03:35:13;1.98;;;1.70;;
11675;SDS011;5894;42.768;23.404;2022-11-21T03:37:40;5.80;;;3.60;;
11675;SDS011;5894;42.768;23.404;2022-11-21T03:40:07;6.15;;;2.33;;
11675;SDS011;5894;42.768;23.404;2022-11-21T03:42:35;4.50;;;3.20;;
11675;SDS011;5894;42.768;23.404;2022-11-21T03:45:02;4.43;;;3.10;;
11675;SDS011;5894;42.768;23.404;2022-11-21T03:47:29;4.35;;;3.53;;
11675;SDS011;5894;42.768;23.404;2022-11-21T03:49:56;4.75;;;3.03;;
11675;SDS011;5894;42.768;23.404;2022-11-21T03:52:24;4.00;;;2.90;;
11675;SDS011;5894;42.768;23.404;2022-11-21T03:54:51;4.55;;;2.63;;
11675;SDS011;5894;42.768;23.404;2022-11-21T03:57:18;4.72;;;2.72;;
11675;SDS011;5894;42.768;23.404;2022-11-21T03:59:45;4.60;;;2.70;;
11675;SDS011;5894;42.768;23.404;2022-11-21T04:02:12;5.68;;;2.92;;
11675;SDS011;5894;42.768;23.404;2022-11-21T04:04:39;3.45;;;2.97;;
11675;SDS011;5894;42.768;23.404;2022-11-21T04:07:05;4.70;;;2.55;;
11675;SDS011;5894;42.768;23.404;2022-11-21T04:09:34;3.90;;;2.10;;
11675;SDS011;5894;42.768;23.404;2022-11-21T04:12:00;12.25;;;4.43;;
11675;SDS011;5894;42.768;23.404;2022-11-21T04:14:27;5.85;;;3.05;;
11675;SDS011;5894;42.768;23.404;2022-11-21T04:16:54;5.53;;;2.58;;
11675;SDS011;5894;42.768;23.404;2022-11-21T04:19:21;3.35;;;1.90;;
11675;SDS011;5894;42.768;23.404;2022-11-21T04:21:47;4.25;;;2.33;;
11675;SDS011;5894;42.768;23.404;2022-11-21T04:24:14;4.78;;;2.92;;
11675;SDS011;5894;42.768;23.404;2022-11-21T04:26:42;3.10;;;1.48;;
11675;SDS011;5894;42.768;23.404;2022-11-21T04:29:09;3.50;;;1.48;;
11675;SDS011;5894;42.768;23.404;2022-11-21T04:31:36;2.90;;;1.60;;
11675;SDS011;5894;42.768;23.404;2022-11-21T04:34:03;2.97;;;2.30;;
11675;SDS011;5894;42.768;23.404;2022-11-21T04:36:30;6.00;;;2.50;;
11675;SDS011;5894;42.768;23.404;2022-11-21T04:38:57;5.53;;;3.15;;
11675;SDS011;5894;42.768;23.404;2022-11-21T04:41:23;4.88;;;3.00;;
11675;SDS011;5894;42.768;23.404;2022-11-21T04:43:52;7.60;;;3.70;;
11675;SDS011;5894;42.768;23.404;2022-11-21T04:46:18;5.40;;;3.30;;
11675;SDS011;5894;42.768;23.404;2022-11-21T04:48:45;5.60;;;3.00;;
11675;SDS011;5894;42.768;23.404;2022-11-21T04:51:12;4.13;;;2.60;;
11675;SDS011;5894;42.768;23.404;2022-11-21T04:53:39;3.92;;;2.35;;
11675;SDS011;5894;42.768;23.404;2022-11-21T04:56:06;4.68;;;2.30;;
11675;SDS011;5894;42.768;23.404;2022-11-21T04:58:32;4.25;;;2.53;;
11675;SDS011;5894;42.768;23.404;2022-11-21T05:01:05;3.13;;;2.75;;
11675;SDS011;5894;42.768;23.404;2022-11-21T05:03:32;3.08;;;2.40;;
11675;SDS011;5894;42.768;23.404;2022-11-21T05:05:59;2.47;;;1.92;;
11675;SDS011;5894;42.768;23.404;2022-11-21T05:08:26;2.38;;;1.58;;
11675;SDS011;5894;42.768;23.404;2022-11-21T05:10:54;2.13;;;1.67;;
11675;SDS011;5894;42.768;23.404;2022-11-21T05:13:38;1.65;;;1.30;;
11675;SDS011;5894;42.768;23.404;2022-11-21T05:16:07;4.30;;;2.50;;
11675;SDS011;5894;42.768;23.404;2022-11-21T05:18:34;3.58;;;2.30;;
11675;SDS011;5894;42.768;23.404;2022-11-21T05:21:01;3.03;;;2.15;;
11675;SDS011;5894;42.768;23.404;2022-11-21T05:23:28;1.80;;;1.55;;
11675;SDS011;5894;42.768;23.404;2022-11-21T05:25:55;2.22;;;1.00;;
11675;SDS011;5894;42.768;23.404;2022-11-21T05:28:22;1.38;;;1.05;;
11675;SDS011;5894;42.768;23.404;2022-11-21T05:30:49;1.42;;;1.10;;
11675;SDS011;5894;42.768;23.404;2022-11-21T05:33:17;3.42;;;0.90;;
11675;SDS011;5894;42.768;23.404;2022-11-21T05:35:44;1.38;;;1.08;;
11675;SDS011;5894;42.768;23.404;2022-11-21T05:38:11;1.58;;;1.20;;
11675;SDS011;5894;42.768;23.404;2022-11-21T05:40:38;2.35;;;1.30;;
11675;SDS011;5894;42.768;23.404;2022-11-21T05:43:05;2.83;;;1.38;;
11675;SDS011;5894;42.768;23.404;2022-11-21T05:45:49;1.45;;;0.90;;
11675;SDS011;5894;42.768;23.404;2022-11-21T05:48:18;1.40;;;1.10;;
11675;SDS011;5894;42.768;23.404;2022-11-21T05:50:45;3.80;;;2.60;;
11675;SDS011;5894;42.768;23.404;2022-11-21T05:53:14;2.50;;;1.73;;
11675;SDS011;5894;42.768;23.404;2022-11-21T05:55:40;19.87;;;17.20;;
11675;SDS011;5894;42.768;23.404;2022-11-21T05:58:07;26.27;;;23.47;;
11675;SDS011;5894;42.768;23.404;2022-11-21T06:00:35;2.83;;;2.43;;
11675;SDS011;5894;42.768;23.404;2022-11-21T06:03:02;2.00;;;1.50;;
11675;SDS011;5894;42.768;23.404;2022-11-21T06:05:47;2.47;;;1.10;;
11675;SDS011;5894;42.768;23.404;2022-11-21T06:08:14;2.33;;;1.30;;
11675;SDS011;5894;42.768;23.404;2022-11-21T06:10:41;2.30;;;1.20;;
11675;SDS011;5894;42.768;23.404;2022-11-21T06:13:08;4.83;;;3.80;;
11675;SDS011;5894;42.768;23.404;2022-11-21T06:15:46;4.47;;;2.67;;
11675;SDS011;5894;42.768;23.404;2022-11-21T06:18:14;3.37;;;2.10;;
11675;SDS011;5894;42.768;23.404;2022-11-21T06:20:41;2.20;;;1.30;;
11675;SDS011;5894;42.768;23.404;2022-11-21T06:23:09;1.00;;;0.90;;
11675;SDS011;5894;42.768;23.404;2022-11-21T06:25:36;1.93;;;0.87;;
11675;SDS011;5894;42.768;23.404;2022-11-21T06:28:03;1.20;;;1.10;;
11675;SDS011;5894;42.768;23.404;2022-11-21T06:30:30;2.20;;;1.50;;
11675;SDS011;5894;42.768;23.404;2022-11-21T06:32:57;3.07;;;1.80;;
11675;SDS011;5894;42.768;23.404;2022-11-21T06:35:23;2.27;;;1.40;;
11675;SDS011;5894;42.768;23.404;2022-11-21T06:37:50;2.60;;;2.07;;
11675;SDS011;5894;42.768;23.404;2022-11-21T06:40:18;2.00;;;1.80;;
11675;SDS011;5894;42.768;23.404;2022-11-21T06:42:45;1.30;;;1.13;;
11675;SDS011;5894;42.768;23.404;2022-11-21T06:45:12;1.00;;;0.90;;
11675;SDS011;5894;42.768;23.404;2022-11-21T06:47:39;0.70;;;0.70;;
11675;SDS011;5894;42.768;23.404;2022-11-21T06:50:06;1.67;;;1.10;;
11675;SDS011;5894;42.768;23.404;2022-11-21T06:52:33;2.07;;;1.30;;
11675;SDS011;5894;42.768;23.404;2022-11-21T06:55:00;1.50;;;1.00;;
11675;SDS011;5894;42.768;23.404;2022-11-21T06:57:28;0.70;;;0.70;;
11675;SDS011;5894;42.768;23.404;2022-11-21T06:59:56;0.73;;;0.73;;
11675;SDS011;5894;42.768;23.404;2022-11-21T07:02:23;1.40;;;0.60;;
11675;SDS011;5894;42.768;23.404;2022-11-21T07:04:51;2.13;;;1.50;;
11675;SDS011;5894;42.768;23.404;2022-11-21T07:07:18;1.30;;;1.20;;
11675;SDS011;5894;42.768;23.404;2022-11-21T07:09:45;2.00;;;1.33;;
11675;SDS011;5894;42.768;23.404;2022-11-21T07:12:12;2.53;;;1.50;;
11675;SDS011;5894;42.768;23.404;2022-11-21T07:14:58;2.00;;;1.63;;
11675;SDS011;5894;42.768;23.404;2022-11-21T07:17:24;3.73;;;2.10;;
11675;SDS011;5894;42.768;23.404;2022-11-21T07:19:51;4.40;;;3.27;;
11675;SDS011;5894;42.768;23.404;2022-11-21T07:22:18;4.90;;;3.50;;
11675;SDS011;5894;42.768;23.404;2022-11-21T07:24:45;3.60;;;2.70;;
11675;SDS011;5894;42.768;23.404;2022-11-21T07:27:12;5.43;;;2.93;;
11675;SDS011;5894;42.768;23.404;2022-11-21T07:29:38;6.23;;;3.40;;
11675;SDS011;5894;42.768;23.404;2022-11-21T07:32:06;3.07;;;1.70;;
11675;SDS011;5894;42.768;23.404;2022-11-21T07:34:33;3.53;;;1.10;;
11675;SDS011;5894;42.768;23.404;2022-11-21T07:37:00;1.43;;;0.67;;
11675;SDS011;5894;42.768;23.404;2022-11-21T07:39:27;0.87;;;0.87;;
11675;SDS011;5894;42.768;23.404;2022-11-21T07:41:54;2.57;;;1.43;;
11675;SDS011;5894;42.768;23.404;2022-11-21T07:44:21;3.43;;;2.30;;
11675;SDS011;5894;42.768;23.404;2022-11-21T07:46:48;3.10;;;1.97;;
11675;SDS011;5894;42.768;23.404;2022-11-21T07:49:16;1.47;;;1.23;;
11675;SDS011;5894;42.768;23.404;2022-11-21T07:51:42;1.10;;;0.93;;
11675;SDS011;5894;42.768;23.404;2022-11-21T07:54:09;0.90;;;0.90;;
11675;SDS011;5894;42.768;23.404;2022-11-21T07:56:36;2.63;;;1.40;;
11675;SDS011;5894;42.768;23.404;2022-11-21T07:59:03;1.53;;;1.37;;
11675;SDS011;5894;42.768;23.404;2022-11-21T08:01:30;2.37;;;1.63;;
11675;SDS011;5894;42.768;23.404;2022-11-21T08:03:56;3.03;;;1.90;;
11675;SDS011;5894;42.768;23.404;2022-11-21T08:06:25;3.90;;;2.83;;
11675;SDS011;5894;42.768;23.404;2022-11-21T08:08:51;1.40;;;1.30;;
11675;SDS011;5894;42.768;23.404;2022-11-21T08:11:19;1.00;;;0.93;;
11675;SDS011;5894;42.768;23.404;2022-11-21T08:13:46;1.10;;;0.70;;
11675;SDS011;5894;42.768;23.404;2022-11-21T08:16:13;0.67;;;0.60;;
11675;SDS011;5894;42.768;23.404;2022-11-21T08:18:40;0.93;;;0.83;;
11675;SDS011;5894;42.768;23.404;2022-11-21T08:21:06;0.60;;;0.60;;
11675;SDS011;5894;42.768;23.404;2022-11-21T08:23:34;0.60;;;0.60;;
11675;SDS011;5894;42.768;23.404;2022-11-21T08:26:01;0.70;;;0.50;;
11675;SDS011;5894;42.768;23.404;2022-11-21T08:28:29;1.03;;;0.50;;
11675;SDS011;5894;42.768;23.404;2022-11-21T08:30:56;0.40;;;0.40;;
11675;SDS011;5894;42.768;23.404;2022-11-21T08:33:22;1.20;;;0.63;;
11675;SDS011;5894;42.768;23.404;2022-11-21T08:35:49;0.40;;;0.40;;
11675;SDS011;5894;42.768;23.404;2022-11-21T08:38:16;0.47;;;0.47;;
11675;SDS011;5894;42.768;23.404;2022-11-21T08:40:44;0.77;;;0.60;;
11675;SDS011;5894;42.768;23.404;2022-11-21T08:43:12;0.50;;;0.50;;
11675;SDS011;5894;42.768;23.404;2022-11-21T08:45:39;0.40;;;0.40;;
11675;SDS011;5894;42.768;23.404;2022-11-21T08:48:08;0.63;;;0.20;;
11675;SDS011;5894;42.768;23.404;2022-11-21T08:50:36;0.83;;;0.70;;
11675;SDS011;5894;42.768;23.404;2022-11-21T08:53:03;0.10;;;0.10;;
11675;SDS011;5894;42.768;23.404;2022-11-21T08:55:30;0.50;;;0.40;;
11675;SDS011;5894;42.768;23.404;2022-11-21T08:57:58;0.40;;;0.40;;
11675;SDS011;5894;42.768;23.404;2022-11-21T09:00:24;0.50;;;0.30;;
11675;SDS011;5894;42.768;23.404;2022-11-21T09:02:52;0.67;;;0.50;;
11675;SDS011;5894;42.768;23.404;2022-11-21T09:05:19;1.40;;;0.30;;
11675;SDS011;5894;42.768;23.404;2022-11-21T09:07:46;0.77;;;0.50;;
11675;SDS011;5894;42.768;23.404;2022-11-21T09:10:13;0.40;;;0.40;;
11675;SDS011;5894;42.768;23.404;2022-11-21T09:12:40;1.37;;;0.67;;
11675;SDS011;5894;42.768;23.404;2022-11-21T09:15:10;0.50;;;0.40;;
11675;SDS011;5894;42.768;23.404;2022-11-21T09:18:09;0.20;;;0.20;;
11675;SDS011;5894;42.768;23.404;2022-11-21T09:20:37;1.00;;;0.40;;
11675;SDS011;5894;42.768;23.404;2022-11-21T09:23:05;0.50;;;0.50;;
11675;SDS011;5894;42.768;23.404;2022-11-21T09:25:33;0.40;;;0.40;;
11675;SDS011;5894;42.768;23.404;2022-11-21T09:28:00;1.17;;;0.40;;
11675;SDS011;5894;42.768;23.404;2022-11-21T09:30:30;0.30;;;0.30;;
11675;SDS011;5894;42.768;23.404;2022-11-21T09:32:58;0.60;;;0.40;;
11675;SDS011;5894;42.768;23.404;2022-11-21T09:35:26;0.53;;;0.53;;
11675;SDS011;5894;42.768;23.404;2022-11-21T09:37:53;1.67;;;0.70;;
11675;SDS011;5894;42.768;23.404;2022-11-21T09:40:20;0.70;;;0.70;;
11675;SDS011;5894;42.768;23.404;2022-11-21T09:45:49;0.60;;;0.60;;
11675;SDS011;5894;42.768;23.404;2022-11-21T09:48:21;0.70;;;0.70;;
11675;SDS011;5894;42.768;23.404;2022-11-21T09:50:54;1.17;;;0.60;;
11675;SDS011;5894;42.768;23.404;2022-11-21T09:53:27;1.47;;;1.10;;
11675;SDS011;5894;42.768;23.404;2022-11-21T09:55:58;1.33;;;0.90;;
11675;SDS011;5894;42.768;23.404;2022-11-21T09:58:29;1.00;;;0.90;;
11675;SDS011;5894;42.768;23.404;2022-11-21T10:01:02;0.87;;;0.87;;
11675;SDS011;5894;42.768;23.404;2022-11-21T10:03:29;0.77;;;0.77;;
11675;SDS011;5894;42.768;23.404;2022-11-21T10:06:03;1.17;;;1.00;;
11675;SDS011;5894;42.768;23.404;2022-11-21T10:08:40;1.10;;;1.00;;
11675;SDS011;5894;42.768;23.404;2022-11-21T10:11:16;0.80;;;0.80;;
11675;SDS011;5894;42.768;23.404;2022-11-21T10:13:53;0.97;;;0.90;;
11675;SDS011;5894;42.768;23.404;2022-11-21T10:16:38;1.07;;;0.90;;
11675;SDS011;5894;42.768;23.404;2022-11-21T10:19:14;1.27;;;1.17;;
11675;SDS011;5894;42.768;23.404;2022-11-21T10:24:54;1.90;;;1.00;;
11675;SDS011;5894;42.768;23.404;2022-11-21T10:27:25;1.07;;;0.97;;
11675;SDS011;5894;42.768;23.404;2022-11-21T10:29:58;1.37;;;0.80;;
11675;SDS011;5894;42.768;23.404;2022-11-21T10:32:30;1.03;;;0.93;;
11675;SDS011;5894;42.768;23.404;2022-11-21T10:35:03;1.57;;;1.00;;
11675;SDS011;5894;42.768;23.404;2022-11-21T10:37:41;0.90;;;0.90;;
11675;SDS011;5894;42.768;23.404;2022-11-21T10:40:14;0.83;;;0.83;;
11675;SDS011;5894;42.768;23.404;2022-11-21T10:42:50;1.03;;;1.00;;
11675;SDS011;5894;42.768;23.404;2022-11-21T10:45:20;1.20;;;1.10;;
11675;SDS011;5894;42.768;23.404;2022-11-21T10:47:48;1.27;;;1.03;;
11675;SDS011;5894;42.768;23.404;2022-11-21T10:50:31;1.53;;;1.10;;
11675;SDS011;5894;42.768;23.404;2022-11-21T10:53:10;1.57;;;1.23;;
11675;SDS011;5894;42.768;23.404;2022-11-21T10:55:59;1.23;;;1.10;;
11675;SDS011;5894;42.768;23.404;2022-11-21T10:58:39;1.20;;;1.07;;
11675;SDS011;5894;42.768;23.404;2022-11-21T11:01:17;1.47;;;1.20;;
11675;SDS011;5894;42.768;23.404;2022-11-21T11:06:45;1.93;;;1.60;;
11675;SDS011;5894;42.768;23.404;2022-11-21T11:09:26;2.10;;;1.10;;
11675;SDS011;5894;42.768;23.404;2022-11-21T11:14:48;1.50;;;1.00;;
11675;SDS011;5894;42.768;23.404;2022-11-21T11:17:24;1.13;;;0.90;;
11675;SDS011;5894;42.768;23.404;2022-11-21T11:20:00;1.80;;;1.60;;
11675;SDS011;5894;42.768;23.404;2022-11-21T11:22:30;1.10;;;1.00;;
11675;SDS011;5894;42.768;23.404;2022-11-21T11:24:57;1.07;;;1.00;;
11675;SDS011;5894;42.768;23.404;2022-11-21T11:27:27;0.87;;;0.87;;
11675;SDS011;5894;42.768;23.404;2022-11-21T11:29:54;1.20;;;1.10;;
11675;SDS011;5894;42.768;23.404;2022-11-21T11:32:21;2.60;;;1.30;;
11675;SDS011;5894;42.768;23.404;2022-11-21T11:34:52;1.17;;;1.00;;
11675;SDS011;5894;42.768;23.404;2022-11-21T11:37:29;1.13;;;1.03;;
11675;SDS011;5894;42.768;23.404;2022-11-21T11:40:04;1.23;;;1.13;;
11675;SDS011;5894;42.768;23.404;2022-11-21T11:46:13;1.53;;;1.20;;
11675;SDS011;5894;42.768;23.404;2022-11-21T11:49:10;1.20;;;1.10;;
11675;SDS011;5894;42.768;23.404;2022-11-21T11:51:43;4.53;;;1.40;;
11675;SDS011;5894;42.768;23.404;2022-11-21T11:54:16;1.37;;;1.27;;
11675;SDS011;5894;42.768;23.404;2022-11-21T11:56:46;1.00;;;1.00;;
11675;SDS011;5894;42.768;23.404;2022-11-21T11:59:14;1.17;;;1.07;;
11675;SDS011;5894;42.768;23.404;2022-11-21T12:01:47;1.37;;;1.27;;
11675;SDS011;5894;42.768;23.404;2022-11-21T12:04:21;1.90;;;1.50;;
11675;SDS011;5894;42.768;23.404;2022-11-21T12:06:50;2.10;;;1.70;;
11675;SDS011;5894;42.768;23.404;2022-11-21T12:09:23;1.20;;;1.10;;
11675;SDS011;5894;42.768;23.404;2022-11-21T12:12:01;2.20;;;1.90;;
11675;SDS011;5894;42.768;23.404;2022-11-21T12:14:49;1.30;;;1.20;;
11675;SDS011;5894;42.768;23.404;2022-11-21T12:17:42;2.47;;;1.33;;
11675;SDS011;5894;42.768;23.404;2022-11-21T12:20:18;1.10;;;1.00;;
11675;SDS011;5894;42.768;23.404;2022-11-21T12:22:49;0.97;;;0.93;;
11675;SDS011;5894;42.768;23.404;2022-11-21T12:25:27;1.77;;;1.07;;
11675;SDS011;5894;42.768;23.404;2022-11-21T12:27:56;1.30;;;1.20;;
11675;SDS011;5894;42.768;23.404;2022-11-21T12:30:28;1.30;;;1.20;;
11675;SDS011;5894;42.768;23.404;2022-11-21T12:33:17;1.60;;;1.50;;
11675;SDS011;5894;42.768;23.404;2022-11-21T12:35:53;1.50;;;1.40;;
11675;SDS011;5894;42.768;23.404;2022-11-21T12:38:35;2.17;;;1.70;;
11675;SDS011;5894;42.768;23.404;2022-11-21T12:41:18;3.93;;;2.00;;
11675;SDS011;5894;42.768;23.404;2022-11-21T12:44:12;2.90;;;2.20;;
11675;SDS011;5894;42.768;23.404;2022-11-21T12:46:53;2.00;;;1.80;;
11675;SDS011;5894;42.768;23.404;2022-11-21T12:49:33;1.50;;;1.40;;
11675;SDS011;5894;42.768;23.404;2022-11-21T12:52:35;1.50;;;1.40;;
11675;SDS011;5894;42.768;23.404;2022-11-21T12:55:28;1.60;;;1.50;;
11675;SDS011;5894;42.768;23.404;2022-11-21T12:58:10;1.60;;;1.50;;
11675;SDS011;5894;42.768;23.404;2022-11-21T13:00:50;1.50;;;1.40;;
11675;SDS011;5894;42.768;23.404;2022-11-21T13:03:32;2.10;;;1.90;;
11675;SDS011;5894;42.768;23.404;2022-11-21T13:06:05;1.90;;;1.80;;
11675;SDS011;5894;42.768;23.404;2022-11-21T13:08:40;2.50;;;2.30;;
11675;SDS011;5894;42.768;23.404;2022-11-21T13:11:09;2.50;;;2.30;;
11675;SDS011;5894;42.768;23.404;2022-11-21T13:14:03;1.90;;;1.80;;
11675;SDS011;5894;42.768;23.404;2022-11-21T13:16:37;1.70;;;1.60;;
11675;SDS011;5894;42.768;23.404;2022-11-21T13:19:15;1.63;;;1.53;;
11675;SDS011;5894;42.768;23.404;2022-11-21T13:21:48;1.90;;;1.63;;
11675;SDS011;5894;42.768;23.404;2022-11-21T13:27:27;1.93;;;1.80;;
11675;SDS011;5894;42.768;23.404;2022-11-21T13:32:48;2.70;;;2.40;;
11675;SDS011;5894;42.768;23.404;2022-11-21T13:38:24;4.37;;;3.00;;
11675;SDS011;5894;42.768;23.404;2022-11-21T13:40:51;2.93;;;2.40;;
11675;SDS011;5894;42.768;23.404;2022-11-21T13:43:36;2.80;;;2.17;;
11675;SDS011;5894;42.768;23.404;2022-11-21T13:46:04;2.43;;;1.90;;
11675;SDS011;5894;42.768;23.404;2022-11-21T13:48:40;3.03;;;1.97;;
11675;SDS011;5894;42.768;23.404;2022-11-21T13:51:27;5.00;;;3.50;;
11675;SDS011;5894;42.768;23.404;2022-11-21T13:54:25;3.90;;;2.80;;
11675;SDS011;5894;42.768;23.404;2022-11-21T13:57:13;3.53;;;3.03;;
11675;SDS011;5894;42.768;23.404;2022-11-21T13:59:59;5.33;;;2.93;;
11675;SDS011;5894;42.768;23.404;2022-11-21T14:02:45;9.87;;;5.60;;
11675;SDS011;5894;42.768;23.404;2022-11-21T14:05:56;5.07;;;3.80;;
11675;SDS011;5894;42.768;23.404;2022-11-21T14:08:56;3.37;;;2.90;;
11675;SDS011;5894;42.768;23.404;2022-11-21T14:11:31;3.57;;;3.07;;
11675;SDS011;5894;42.768;23.404;2022-11-21T14:14:02;6.37;;;4.50;;
11675;SDS011;5894;42.768;23.404;2022-11-21T14:16:30;5.83;;;4.53;;
11675;SDS011;5894;42.768;23.404;2022-11-21T14:19:04;7.33;;;5.03;;
11675;SDS011;5894;42.768;23.404;2022-11-21T14:21:31;11.37;;;8.23;;
11675;SDS011;5894;42.768;23.404;2022-11-21T14:24:00;12.03;;;8.97;;
11675;SDS011;5894;42.768;23.404;2022-11-21T14:26:30;8.90;;;6.27;;
11675;SDS011;5894;42.768;23.404;2022-11-21T14:29:15;6.80;;;5.17;;
11675;SDS011;5894;42.768;23.404;2022-11-21T14:31:43;9.00;;;6.97;;
11675;SDS011;5894;42.768;23.404;2022-11-21T14:34:12;7.23;;;5.10;;
11675;SDS011;5894;42.768;23.404;2022-11-21T14:36:49;9.77;;;5.57;;
11675;SDS011;5894;42.768;23.404;2022-11-21T14:39:16;9.33;;;6.73;;
11675;SDS011;5894;42.768;23.404;2022-11-21T14:41:47;7.93;;;6.57;;
11675;SDS011;5894;42.768;23.404;2022-11-21T14:44:17;6.97;;;5.57;;
11675;SDS011;5894;42.768;23.404;2022-11-21T14:46:46;6.27;;;5.37;;
11675;SDS011;5894;42.768;23.404;2022-11-21T14:49:20;6.87;;;4.20;;
11675;SDS011;5894;42.768;23.404;2022-11-21T14:51:57;2.70;;;2.50;;
11675;SDS011;5894;42.768;23.404;2022-11-21T14:54:30;3.03;;;2.80;;
11675;SDS011;5894;42.768;23.404;2022-11-21T14:57:00;2.83;;;2.63;;
11675;SDS011;5894;42.768;23.404;2022-11-21T14:59:31;2.33;;;2.13;;
11675;SDS011;5894;42.768;23.404;2022-11-21T15:02:06;2.83;;;2.63;;
11675;SDS011;5894;42.768;23.404;2022-11-21T15:04:39;2.60;;;2.40;;
11675;SDS011;5894;42.768;23.404;2022-11-21T15:07:14;2.57;;;2.37;;
11675;SDS011;5894;42.768;23.404;2022-11-21T15:09:44;3.43;;;2.50;;
11675;SDS011;5894;42.768;23.404;2022-11-21T15:12:11;2.63;;;2.43;;
11675;SDS011;5894;42.768;23.404;2022-11-21T15:14:46;2.53;;;2.33;;
11675;SDS011;5894;42.768;23.404;2022-11-21T15:17:18;2.40;;;2.20;;
11675;SDS011;5894;42.768;23.404;2022-11-21T15:20:02;2.93;;;2.63;;
11675;SDS011;5894;42.768;23.404;2022-11-21T15:22:34;3.10;;;2.80;;
11675;SDS011;5894;42.768;23.404;2022-11-21T15:25:07;4.07;;;3.37;;
11675;SDS011;5894;42.768;23.404;2022-11-21T15:27:43;3.67;;;3.27;;
11675;SDS011;5894;42.768;23.404;2022-11-21T15:30:24;4.30;;;3.30;;
11675;SDS011;5894;42.768;23.404;2022-11-21T15:33:05;4.30;;;3.40;;